Aeroporto :
LOGIN :

Iscrizione | Disclaimer

   EN    FR    IT 

 










Sommario :    VFR   VFR Marginale   IFR   IFR Intensivo   IFR Molto Intensivo
Visibilità : 
Base nubi : 
>= 8 km
>= 3000ft
5 / 8 km
1000 / 3000 ft
1500m / 5 km
500 / 1000 ft
800 / 1500m
200 / 500 ft
< 800m
< 200 ft
Simboli :   Temporali  Nebbia  Neve Forte  Precipitazioni Forti  Vento > 20 kt
SIGMETs :   Varie  Temporali  Ghiacco  Turbolenza  Onda orograficha  Ceneri Vulcaniche






- Altitudine del aeroporto : 194 ft
- Codice IATA : ANE


LFJR - Angers Marcé

ULTIMO METAR :
  • 230900Z AUTO 24010KT 5000 -RADZ BR BKN006 OVC010 20/19 Q1022

METARs OBSOLETI :
  • 230830Z AUTO 25011KT 7000 2200 BKN008 OVC014 20/18 Q1021
  • 230800Z AUTO 25010KT 9999 OVC008 20/18 Q1021
  • 230730Z AUTO 24011KT 9999 OVC007 19/18 Q1021
  • 230700Z AUTO 24010KT 210V270 9999 OVC007 19/18 Q1021
  • 230630Z AUTO 24010KT 9999 OVC006 19/18 Q1021
  • 230600Z AUTO 24010KT 9999 OVC006 19/18 Q1021
  • 230530Z AUTO 24009KT 9999 OVC007 19/18 Q1021
  • 230500Z AUTO 24010KT 9999 OVC007 19/18 Q1021
  • 230430Z AUTO 23009KT 9999 OVC007 19/18 Q1021

Previsioni scadute.



MetMap, La meteo Aeronautica in un colpo d'occhio ! - Copyright ORBIFLY Dicembre 2007 - Disclaimer

ORBIFLY MET'MAP TEAM :

Programmazione e sviluppo : Alexandra Zaïnal
Concezione : Baudouin d'Aumeries
Supporto tecnico e logistico : Manuel Goepfert
Aiuto : Marc-Olivier Méhu
Aiuto per la traduzione : Arnaldo La Scala




FONTI E CREDITI :

   NOAA